createdAt,value
2018-11-23T00:01:16.178Z,100956.93
2018-11-23T00:06:18.754Z,100963.80
2018-11-23T00:11:21.258Z,100962.94
2018-11-23T00:16:23.831Z,100961.22
2018-11-23T00:21:26.338Z,100963.53
2018-11-23T00:26:29.641Z,100960.67
2018-11-23T00:31:32.170Z,100962.19
2018-11-23T00:36:34.723Z,100963.16
2018-11-23T00:41:37.247Z,100966.70
2018-11-23T00:46:39.783Z,100963.27
2018-11-23T00:51:42.319Z,100965.10
2018-11-23T00:56:44.889Z,100964.77
2018-11-23T01:01:52.903Z,100956.56
2018-11-23T01:06:55.412Z,100960.89
2018-11-23T01:11:57.919Z,100959.06
2018-11-23T01:17:00.427Z,100958.58
2018-11-23T01:22:02.978Z,100953.43
2018-11-23T01:27:05.753Z,100955.14
2018-11-23T01:32:08.269Z,100954.40
2018-11-23T01:37:10.778Z,100950.08
2018-11-23T01:42:13.303Z,100946.28
2018-11-23T01:47:15.865Z,100947.36
2018-11-23T01:52:18.375Z,100949.97
2018-11-23T01:57:20.883Z,100950.94
2018-11-23T02:02:23.426Z,100950.23
2018-11-23T02:07:25.925Z,100949.74
2018-11-23T02:12:28.421Z,100948.25
2018-11-23T02:17:30.985Z,100942.43
2018-11-23T02:22:33.517Z,100939.98
2018-11-23T02:27:36.038Z,100928.48
2018-11-23T02:32:38.601Z,100927.04
2018-11-23T02:37:41.125Z,100927.04
2018-11-23T02:42:43.822Z,100932.78
2018-11-23T02:47:47.025Z,100930.20
2018-11-23T02:52:50.675Z,100933.59
2018-11-23T02:57:53.218Z,100938.00
2018-11-23T03:02:55.757Z,100932.14
2018-11-23T03:07:58.366Z,100932.18
2018-11-23T03:13:00.945Z,100928.05
2018-11-23T03:18:03.656Z,100935.42
2018-11-23T03:23:06.203Z,100923.61
2018-11-23T03:28:08.718Z,100935.58
2018-11-23T03:33:11.279Z,100927.30
2018-11-23T03:38:13.843Z,100920.51
2018-11-23T03:43:16.369Z,100918.94
2018-11-23T03:48:18.931Z,100917.60
2018-11-23T03:53:21.465Z,100920.40
2018-11-23T03:58:23.998Z,100920.51
2018-11-23T04:03:26.591Z,100911.67
2018-11-23T04:08:29.114Z,100905.56
2018-11-23T04:13:31.854Z,100903.84
2018-11-23T04:18:34.419Z,100911.52
2018-11-23T04:23:36.956Z,100914.44
2018-11-23T04:28:39.503Z,100906.45
2018-11-23T04:33:42.112Z,100906.09
2018-11-23T04:38:44.646Z,100911.67
2018-11-23T04:43:47.225Z,100909.66
2018-11-23T04:48:50.171Z,100909.17
2018-11-23T04:53:56.837Z,100906.08
2018-11-23T04:58:59.539Z,100907.72
2018-11-23T05:04:02.054Z,100906.06
2018-11-23T05:09:06.422Z,100908.75
2018-11-23T05:14:08.935Z,100913.84
2018-11-23T05:19:11.485Z,100905.61
2018-11-23T05:24:14.029Z,100902.17
2018-11-23T05:29:16.565Z,100896.92
2018-11-23T05:34:19.111Z,100900.56
2018-11-23T05:39:21.714Z,100902.02
2018-11-23T05:44:24.252Z,100899.78
2018-11-23T05:49:26.806Z,100906.59
2018-11-23T05:54:29.363Z,100910.25
2018-11-23T05:59:31.908Z,100914.38
2018-11-23T06:04:34.439Z,100914.48
2018-11-23T06:09:36.981Z,100909.71
2018-11-23T06:14:39.536Z,100915.45
2018-11-23T06:19:42.083Z,100917.86
2018-11-23T06:24:44.634Z,100917.45
2018-11-23T06:29:47.172Z,100914.50
2018-11-23T06:34:49.818Z,100914.87
2018-11-23T06:39:52.436Z,100915.36
2018-11-23T06:44:54.966Z,100917.67
2018-11-23T06:49:57.559Z,100914.72
2018-11-23T06:55:00.094Z,100911.77
2018-11-23T07:00:02.911Z,100911.95
2018-11-23T07:05:06.055Z,100919.99
2018-11-23T07:10:09.187Z,100918.76
2018-11-23T07:15:12.444Z,100920.31
2018-11-23T07:20:15.529Z,100920.80
2018-11-23T07:25:18.075Z,100926.44
2018-11-23T07:30:23.079Z,100920.97
2018-11-23T07:35:25.649Z,100911.80
2018-11-23T07:40:38.849Z,100913.77
2018-11-23T07:45:41.403Z,100932.64
2018-11-23T07:50:43.963Z,100932.46
2018-11-23T07:55:46.570Z,100930.09
2018-11-23T08:00:49.123Z,100935.23
2018-11-23T08:05:51.718Z,100934.11
2018-11-23T08:10:53.584Z,100934.34
2018-11-23T08:15:56.128Z,100928.67
2018-11-23T08:20:58.656Z,100934.09
2018-11-23T08:26:01.215Z,100912.68
2018-11-23T08:31:03.861Z,100922.31
2018-11-23T08:36:06.408Z,100917.53
2018-11-23T08:41:09.162Z,100904.77
2018-11-23T08:46:11.772Z,100902.33
2018-11-23T08:51:14.514Z,100894.77
2018-11-23T08:56:17.109Z,100897.03
2018-11-23T09:01:19.647Z,100899.84
2018-11-23T09:06:22.203Z,100897.20
2018-11-23T09:11:24.882Z,100900.48
2018-11-23T09:16:27.412Z,100898.97
2018-11-23T09:21:29.958Z,100899.86
2018-11-23T09:26:32.518Z,100900.34
2018-11-23T09:31:35.063Z,100904.09
2018-11-23T09:36:37.594Z,100887.25
2018-11-23T09:41:40.206Z,100884.73
2018-11-23T09:46:42.900Z,100886.55
2018-11-23T09:51:45.453Z,100882.91
2018-11-23T09:56:48.003Z,100881.94
2018-11-23T10:01:50.615Z,100870.03
2018-11-23T10:06:53.173Z,100867.70
2018-11-23T10:11:55.739Z,100849.16
2018-11-23T10:16:58.287Z,100852.00
2018-11-23T10:22:00.964Z,100853.06
2018-11-23T10:27:03.514Z,100851.86
2018-11-23T10:32:06.083Z,100847.81
2018-11-23T10:37:08.897Z,100840.63
2018-11-23T10:42:11.470Z,100851.67
2018-11-23T10:47:15.153Z,100846.41
2018-11-23T10:52:17.732Z,100839.44
2018-11-23T10:57:20.270Z,100838.43
2018-11-23T11:02:28.157Z,100833.52
2018-11-23T11:07:30.687Z,100822.73
2018-11-23T11:12:33.212Z,100820.28
2018-11-23T11:17:35.729Z,100820.30
2018-11-23T11:22:38.671Z,100821.44
2018-11-23T11:27:41.467Z,100810.89
2018-11-23T11:32:44.463Z,100806.92
2018-11-23T11:37:46.997Z,100799.83
2018-11-23T11:42:49.515Z,100793.02
2018-11-23T11:47:52.067Z,100791.48
2018-11-23T11:52:54.604Z,100787.77
2018-11-23T11:57:57.172Z,100786.31
2018-11-23T12:02:59.724Z,100772.80
2018-11-23T12:08:02.280Z,100762.08
2018-11-23T12:13:05.190Z,100754.26
2018-11-23T12:18:07.735Z,100744.88
2018-11-23T12:23:10.266Z,100742.57
2018-11-23T12:28:12.795Z,100739.75
2018-11-23T12:33:15.349Z,100738.52
2018-11-23T12:38:17.903Z,100734.88
2018-11-23T12:43:20.427Z,100726.56
2018-11-23T12:48:22.977Z,100718.15
2018-11-23T12:53:25.496Z,100726.56
2018-11-23T12:58:28.015Z,100723.77
2018-11-23T13:03:30.836Z,100716.11
2018-11-23T13:08:33.367Z,100706.42
2018-11-23T13:13:53.147Z,100694.36
2018-11-23T13:18:55.679Z,100693.43
2018-11-23T13:23:58.570Z,100698.37
2018-11-23T13:29:10.822Z,100703.63
2018-11-23T13:34:03.821Z,100708.40
2018-11-23T13:39:06.985Z,100703.74
2018-11-23T13:44:09.566Z,100697.89
2018-11-23T13:49:12.109Z,100685.42
2018-11-23T13:54:14.642Z,100683.34
2018-11-23T13:59:17.168Z,100690.00
2018-11-23T14:04:20.005Z,100692.80
2018-11-23T14:09:22.615Z,100682.86
2018-11-23T14:14:25.154Z,100682.27
2018-11-23T14:19:27.703Z,100682.00
2018-11-23T14:24:30.272Z,100685.91
2018-11-23T14:29:32.835Z,100670.91
2018-11-23T14:34:35.394Z,100659.97
2018-11-23T14:39:37.967Z,100653.93
2018-11-23T14:44:40.654Z,100649.98
2018-11-23T14:49:43.207Z,100652.30
2018-11-23T14:54:45.750Z,100643.88
2018-11-23T14:59:48.283Z,100646.94
2018-11-23T15:04:51.151Z,100653.70
2018-11-23T15:09:53.897Z,100663.35
2018-11-23T15:14:56.588Z,100657.69
2018-11-23T15:19:59.332Z,100659.77
2018-11-23T15:25:01.887Z,100651.88
2018-11-23T15:30:06.105Z,100655.59
2018-11-23T15:35:09.200Z,100661.21
2018-11-23T15:40:14.982Z,100663.30
2018-11-23T15:45:18.987Z,100651.11
2018-11-23T15:50:22.907Z,100659.45
2018-11-23T15:55:27.747Z,100662.27
2018-11-23T16:00:31.665Z,100660.31
2018-11-23T16:05:34.227Z,100656.06
2018-11-23T16:10:37.614Z,100646.55
2018-11-23T16:15:40.159Z,100640.97
2018-11-23T16:20:43.956Z,100631.20
2018-11-23T16:25:47.236Z,100632.92
2018-11-23T16:30:50.951Z,100626.22
2018-11-23T16:35:53.478Z,100622.59
2018-11-23T16:40:57.025Z,100620.31
2018-11-23T16:45:59.600Z,100612.66
2018-11-23T16:51:02.139Z,100611.46
2018-11-23T16:56:04.792Z,100613.55
2018-11-23T17:01:07.324Z,100611.75
2018-11-23T17:06:09.863Z,100600.16
2018-11-23T17:11:13.204Z,100593.75
2018-11-23T17:16:15.903Z,100594.42
2018-11-23T17:21:18.430Z,100578.64
2018-11-23T17:26:21.434Z,100580.00
2018-11-23T17:31:23.712Z,100581.59
2018-11-23T17:36:26.321Z,100571.33
2018-11-23T17:46:30.554Z,100566.31
2018-11-23T17:51:33.172Z,100576.31
2018-11-23T17:56:35.807Z,100575.13
2018-11-23T18:01:38.340Z,100579.30
2018-11-23T18:06:40.903Z,100578.58
2018-11-23T18:11:43.508Z,100566.19
2018-11-23T18:16:46.072Z,100566.42
2018-11-23T18:21:48.593Z,100568.03
2018-11-23T18:26:51.179Z,100563.24
2018-11-23T18:31:53.712Z,100564.73
2018-11-23T18:36:56.272Z,100562.53
2018-11-23T18:41:59.004Z,100551.20
2018-11-23T18:47:01.975Z,100547.66
2018-11-23T18:52:04.977Z,100537.25
2018-11-23T18:57:07.608Z,100530.52
2018-11-23T19:02:10.148Z,100532.50
2018-11-23T19:07:12.683Z,100536.66
2018-11-23T19:17:24.232Z,100519.52
2018-11-23T19:22:26.755Z,100512.44
2018-11-23T19:27:29.531Z,100511.22
2018-11-23T19:32:32.060Z,100503.76
2018-11-23T19:37:34.588Z,100495.84
2018-11-23T19:42:37.120Z,100485.80
2018-11-23T19:47:39.672Z,100483.62
2018-11-23T19:52:42.199Z,100478.61
2018-11-23T19:57:44.751Z,100475.06
2018-11-23T20:02:47.295Z,100473.21
2018-11-23T20:07:51.186Z,100464.42
2018-11-23T20:12:56.206Z,100471.52
2018-11-23T20:17:58.767Z,100464.19
2018-11-23T20:23:01.296Z,100456.52
2018-11-23T20:28:03.812Z,100454.41
2018-11-23T20:33:06.352Z,100444.53
2018-11-23T20:38:08.862Z,100451.11
2018-11-23T20:43:11.525Z,100444.15
2018-11-23T20:48:14.112Z,100442.19
2018-11-23T20:53:16.642Z,100432.86
2018-11-23T20:58:19.155Z,100421.50
2018-11-23T21:03:21.678Z,100416.48
2018-11-23T21:08:24.181Z,100407.84
2018-11-23T21:13:26.727Z,100404.77
2018-11-23T21:18:29.232Z,100400.75
2018-11-23T21:23:31.756Z,100413.44
2018-11-23T21:28:34.302Z,100413.06
2018-11-23T21:33:36.826Z,100410.85
2018-11-23T21:38:39.373Z,100405.12
2018-11-23T21:43:41.920Z,100403.30
2018-11-23T21:48:44.448Z,100410.22
2018-11-23T21:53:47.025Z,100405.73
2018-11-23T21:58:49.553Z,100405.12
2018-11-23T22:03:52.085Z,100403.41
2018-11-23T22:08:54.615Z,100392.55
2018-11-23T22:13:57.158Z,100384.86
2018-11-23T22:18:59.688Z,100372.53
2018-11-23T22:24:02.223Z,100363.63
2018-11-23T22:29:05.029Z,100360.22
2018-11-23T22:34:07.563Z,100353.02
2018-11-23T22:39:11.082Z,100344.47
2018-11-23T22:44:14.358Z,100336.78
2018-11-23T22:49:17.520Z,100340.08
2018-11-23T22:54:20.211Z,100335.69
2018-11-23T22:59:22.733Z,100328.36
2018-11-23T23:04:25.258Z,100321.54
2018-11-23T23:09:27.790Z,100319.70
2018-11-23T23:14:30.401Z,100301.28
2018-11-23T23:19:32.961Z,100298.95
2018-11-23T23:24:35.497Z,100304.58
2018-11-23T23:29:38.055Z,100304.58
2018-11-23T23:34:41.034Z,100285.28
2018-11-23T23:39:43.569Z,100278.09
2018-11-23T23:44:46.175Z,100269.19
2018-11-23T23:49:48.700Z,100264.19
2018-11-23T23:54:51.246Z,100265.52
2018-11-23T23:59:53.785Z,100262.70
